createdAt,value
2018-01-26T00:02:05.704Z,97726.19
2018-01-26T00:04:33.322Z,97732.52
2018-01-26T00:07:00.942Z,97731.02
2018-01-26T00:09:28.543Z,97723.38
2018-01-26T00:11:56.150Z,97722.43
2018-01-26T00:14:23.741Z,97718.44
2018-01-26T00:16:51.603Z,97721.95
2018-01-26T00:19:19.195Z,97729.88
2018-01-26T00:21:46.789Z,97730.50
2018-01-26T00:24:14.427Z,97726.34
2018-01-26T00:26:42.014Z,97723.40
2018-01-26T00:29:09.615Z,97724.27
2018-01-26T00:31:37.212Z,97725.74
2018-01-26T00:34:05.143Z,97733.67
2018-01-26T00:36:32.732Z,97731.38
2018-01-26T00:39:00.475Z,97730.30
2018-01-26T00:41:28.096Z,97727.88
2018-01-26T00:43:55.683Z,97720.73
2018-01-26T00:46:23.300Z,97721.59
2018-01-26T00:48:50.892Z,97729.75
2018-01-26T00:51:18.541Z,97729.23
2018-01-26T00:53:46.141Z,97730.64
2018-01-26T00:56:13.729Z,97727.66
2018-01-26T00:58:41.343Z,97730.25
2018-01-26T01:01:08.932Z,97733.29
2018-01-26T01:03:36.531Z,97722.16
2018-01-26T01:06:04.119Z,97724.38
2018-01-26T01:08:32.095Z,97726.31
2018-01-26T01:10:59.695Z,97726.44
2018-01-26T01:13:27.275Z,97732.45
2018-01-26T01:15:54.891Z,97736.73
2018-01-26T01:18:22.485Z,97736.68
2018-01-26T01:20:50.093Z,97735.36
2018-01-26T01:23:17.691Z,97737.45
2018-01-26T01:25:45.512Z,97742.12
2018-01-26T01:28:13.093Z,97742.61
2018-01-26T01:30:40.684Z,97742.56
2018-01-26T01:33:08.289Z,97751.89
2018-01-26T01:35:35.876Z,97749.73
2018-01-26T01:38:03.500Z,97744.44
2018-01-26T01:40:31.092Z,97755.30
2018-01-26T01:42:58.716Z,97757.05
2018-01-26T01:45:26.301Z,97758.19
2018-01-26T01:47:53.939Z,97755.88
2018-01-26T01:50:21.533Z,97749.02
2018-01-26T01:52:49.123Z,97755.07
2018-01-26T01:55:16.734Z,97751.20
2018-01-26T01:57:45.306Z,97745.83
2018-01-26T02:00:13.304Z,97751.78
2018-01-26T02:02:40.890Z,97749.92
2018-01-26T02:05:08.488Z,97736.38
2018-01-26T02:07:36.102Z,97724.54
2018-01-26T02:10:03.698Z,97742.31
2018-01-26T02:12:31.515Z,97729.23
2018-01-26T02:14:59.104Z,97714.80
2018-01-26T02:17:26.696Z,97705.61
2018-01-26T02:19:54.342Z,97685.70
2018-01-26T02:22:21.936Z,97676.92
2018-01-26T02:24:49.552Z,97671.54
2018-01-26T02:27:17.151Z,97678.00
2018-01-26T02:29:44.946Z,97669.44
2018-01-26T02:32:12.589Z,97664.77
2018-01-26T02:34:40.292Z,97655.09
2018-01-26T02:37:07.915Z,97673.32
2018-01-26T02:39:35.504Z,97679.62
2018-01-26T02:42:03.127Z,97698.79
2018-01-26T02:44:30.743Z,97707.70
2018-01-26T02:46:58.578Z,97694.05
2018-01-26T02:49:26.163Z,97695.99
2018-01-26T02:51:53.752Z,97688.57
2018-01-26T02:54:22.450Z,97689.67
2018-01-26T02:56:50.034Z,97688.75
2018-01-26T02:59:17.650Z,97676.71
2018-01-26T03:01:45.237Z,97674.36
2018-01-26T03:04:12.827Z,97674.19
2018-01-26T03:06:40.462Z,97682.20
2018-01-26T03:09:08.060Z,97682.17
2018-01-26T03:11:36.027Z,97679.50
2018-01-26T03:14:03.615Z,97680.22
2018-01-26T03:16:31.215Z,97690.89
2018-01-26T03:18:58.831Z,97691.94
2018-01-26T03:21:26.416Z,97688.52
2018-01-26T03:23:54.023Z,97688.50
2018-01-26T03:26:21.629Z,97687.28
2018-01-26T03:28:49.553Z,97682.45
2018-01-26T03:31:17.219Z,97685.66
2018-01-26T03:33:44.803Z,97689.92
2018-01-26T03:36:12.402Z,97692.61
2018-01-26T03:38:40.002Z,97697.06
2018-01-26T03:41:07.620Z,97693.16
2018-01-26T03:43:35.202Z,97699.23
2018-01-26T03:46:02.987Z,97696.30
2018-01-26T03:48:30.586Z,97687.23
2018-01-26T03:50:58.177Z,97693.35
2018-01-26T03:53:25.809Z,97685.19
2018-01-26T03:55:53.425Z,97692.19
2018-01-26T03:58:21.048Z,97691.09
2018-01-26T04:00:48.641Z,97686.13
2018-01-26T04:03:16.578Z,97690.05
2018-01-26T04:05:44.163Z,97686.86
2018-01-26T04:08:11.748Z,97689.05
2018-01-26T04:10:39.364Z,97687.35
2018-01-26T04:13:06.977Z,97688.90
2018-01-26T04:15:34.601Z,97683.06
2018-01-26T04:18:02.201Z,97687.48
2018-01-26T04:20:29.960Z,97695.34
2018-01-26T04:22:57.556Z,97703.02
2018-01-26T04:25:25.144Z,97704.85
2018-01-26T04:27:52.763Z,97708.48
2018-01-26T04:30:20.356Z,97704.06
2018-01-26T04:32:47.962Z,97702.12
2018-01-26T04:35:15.556Z,97698.13
2018-01-26T04:37:43.574Z,97700.86
2018-01-26T04:40:11.175Z,97710.55
2018-01-26T04:42:38.764Z,97712.03
2018-01-26T04:45:06.380Z,97711.12
2018-01-26T04:47:33.966Z,97717.03
2018-01-26T04:50:02.544Z,97726.72
2018-01-26T04:52:30.140Z,97723.33
2018-01-26T04:54:57.778Z,97720.64
2018-01-26T04:57:25.367Z,97712.23
2018-01-26T04:59:52.958Z,97716.89
2018-01-26T05:02:20.587Z,97712.81
2018-01-26T05:04:48.186Z,97716.36
2018-01-26T05:07:15.933Z,97709.80
2018-01-26T05:09:43.549Z,97719.58
2018-01-26T05:12:11.353Z,97722.69
2018-01-26T05:14:38.944Z,97719.31
2018-01-26T05:17:06.530Z,97727.84
2018-01-26T05:19:34.142Z,97730.75
2018-01-26T05:22:01.735Z,97737.01
2018-01-26T05:24:29.349Z,97738.02
2018-01-26T05:26:56.946Z,97741.34
2018-01-26T05:29:24.870Z,97741.05
2018-01-26T05:31:52.522Z,97739.77
2018-01-26T05:34:20.126Z,97737.06
2018-01-26T05:36:47.738Z,97736.46
2018-01-26T05:39:15.321Z,97736.77
2018-01-26T05:41:42.976Z,97738.02
2018-01-26T05:44:10.603Z,97739.97
2018-01-26T05:46:38.423Z,97733.55
2018-01-26T05:49:06.019Z,97741.26
2018-01-26T05:51:33.614Z,97746.74
2018-01-26T05:54:01.226Z,97748.62
2018-01-26T05:56:28.807Z,97753.61
2018-01-26T05:58:56.411Z,97763.37
2018-01-26T06:01:24.020Z,97762.36
2018-01-26T06:03:51.678Z,97769.38
2018-01-26T06:06:19.273Z,97769.78
2018-01-26T06:08:46.869Z,97773.61
2018-01-26T06:11:14.488Z,97773.37
2018-01-26T06:13:42.092Z,97782.72
2018-01-26T06:16:09.704Z,97781.77
2018-01-26T06:18:37.315Z,97789.30
2018-01-26T06:21:04.947Z,97801.01
2018-01-26T06:23:32.532Z,97790.39
2018-01-26T06:26:00.132Z,97798.06
2018-01-26T06:28:27.743Z,97805.69
2018-01-26T06:30:55.329Z,97808.02
2018-01-26T06:33:23.079Z,97812.30
2018-01-26T06:35:50.672Z,97813.30
2018-01-26T06:38:18.282Z,97819.36
2018-01-26T06:40:45.907Z,97817.23
2018-01-26T06:43:13.816Z,97823.80
2018-01-26T06:45:41.406Z,97825.62
2018-01-26T06:48:09.011Z,97828.70
2018-01-26T06:50:36.664Z,97835.77
2018-01-26T06:53:04.258Z,97837.98
2018-01-26T06:55:31.870Z,97840.88
2018-01-26T06:57:59.462Z,97841.63
2018-01-26T07:00:27.119Z,97840.42
2018-01-26T07:02:54.702Z,97843.03
2018-01-26T07:05:22.305Z,97852.37
2018-01-26T07:07:49.908Z,97849.83
2018-01-26T07:10:17.555Z,97854.52
2018-01-26T07:12:45.184Z,97850.38
2018-01-26T07:15:12.776Z,97851.72
2018-01-26T07:17:40.412Z,97857.56
2018-01-26T07:20:07.995Z,97853.47
2018-01-26T07:22:35.602Z,97853.84
2018-01-26T07:25:03.224Z,97854.88
2018-01-26T07:27:30.852Z,97861.92
2018-01-26T07:29:58.460Z,97858.36
2018-01-26T07:32:26.048Z,97865.17
2018-01-26T07:34:53.763Z,97864.80
2018-01-26T07:37:21.353Z,97866.73
2018-01-26T07:39:48.963Z,97867.28
2018-01-26T07:42:16.576Z,97865.71
2018-01-26T07:44:44.174Z,97863.25
2018-01-26T07:47:11.783Z,97857.28
2018-01-26T07:49:39.401Z,97867.45
2018-01-26T07:52:07.027Z,97870.89
2018-01-26T07:54:34.652Z,97876.85
2018-01-26T07:57:02.245Z,97877.25
2018-01-26T07:59:29.882Z,97880.20
2018-01-26T08:01:57.468Z,97884.03
2018-01-26T08:04:25.103Z,97886.38
2018-01-26T08:06:52.731Z,97885.86
2018-01-26T08:09:20.368Z,97891.94
2018-01-26T08:11:48.011Z,97888.27
2018-01-26T08:14:15.603Z,97886.08
2018-01-26T08:16:43.240Z,97882.53
2018-01-26T08:19:10.839Z,97880.48
2018-01-26T08:21:38.458Z,97881.52
2018-01-26T08:24:06.096Z,97878.09
2018-01-26T08:26:33.965Z,97876.05
2018-01-26T08:29:01.599Z,97877.39
2018-01-26T08:31:29.195Z,97878.95
2018-01-26T08:33:57.393Z,97881.03
2018-01-26T08:36:25.043Z,97870.28
2018-01-26T08:38:52.655Z,97877.31
2018-01-26T08:41:20.452Z,97878.70
2018-01-26T08:43:48.094Z,97873.36
2018-01-26T08:46:15.684Z,97871.82
2018-01-26T08:48:43.333Z,97872.02
2018-01-26T08:51:10.948Z,97879.49
2018-01-26T08:53:38.906Z,97877.70
2018-01-26T08:56:06.559Z,97877.66
2018-01-26T08:58:34.231Z,97879.94
2018-01-26T09:01:02.122Z,97888.27
2018-01-26T09:03:29.707Z,97898.52
2018-01-26T09:05:57.310Z,97898.53
2018-01-26T09:08:24.991Z,97900.80
2018-01-26T09:10:52.584Z,97903.95
2018-01-26T09:13:20.224Z,97912.23
2018-01-26T09:15:47.828Z,97910.13
2018-01-26T09:18:15.415Z,97913.73
2018-01-26T09:20:43.023Z,97914.36
2018-01-26T09:23:10.615Z,97916.70
2018-01-26T09:25:38.255Z,97928.56
2018-01-26T09:28:05.850Z,97928.47
2018-01-26T09:30:33.440Z,97927.33
2018-01-26T09:33:01.043Z,97930.17
2018-01-26T09:35:28.662Z,97930.16
2018-01-26T09:37:56.319Z,97937.95
2018-01-26T09:40:23.907Z,97948.11
2018-01-26T09:42:51.528Z,97950.89
2018-01-26T09:45:19.153Z,97958.84
2018-01-26T09:47:46.747Z,97953.44
2018-01-26T09:50:14.701Z,97954.25
2018-01-26T09:52:42.294Z,97963.47
2018-01-26T09:55:09.885Z,97964.71
2018-01-26T10:00:04.385Z,97964.52
2018-01-26T10:02:32.016Z,97964.46
2018-01-26T10:04:59.618Z,97972.03
2018-01-26T10:07:27.285Z,97964.86
2018-01-26T10:09:55.167Z,97969.98
2018-01-26T10:12:22.782Z,97971.19
2018-01-26T10:14:50.424Z,97966.30
2018-01-26T10:17:18.108Z,97960.36
2018-01-26T10:19:45.724Z,97962.31
2018-01-26T10:22:13.328Z,97953.73
2018-01-26T10:24:40.938Z,97951.37
2018-01-26T10:27:08.565Z,97950.81
2018-01-26T10:29:36.218Z,97958.95
2018-01-26T10:32:03.844Z,97956.66
2018-01-26T10:34:31.726Z,97955.33
2018-01-26T10:36:59.316Z,97953.52
2018-01-26T10:39:26.926Z,97956.98
2018-01-26T10:41:54.531Z,97954.61
2018-01-26T10:44:22.146Z,97953.29
2018-01-26T10:46:49.738Z,97956.27
2018-01-26T10:49:17.342Z,97949.63
2018-01-26T10:51:45.005Z,97955.98
2018-01-26T10:54:12.601Z,97955.26
2018-01-26T10:56:40.220Z,97964.09
2018-01-26T10:59:07.827Z,97962.22
2018-01-26T11:01:35.424Z,97972.91
2018-01-26T11:04:03.325Z,97977.75
2018-01-26T11:06:30.935Z,97979.48
2018-01-26T11:08:58.664Z,97978.66
2018-01-26T11:11:26.332Z,97975.30
2018-01-26T11:13:53.965Z,97980.30
2018-01-26T11:16:21.579Z,97974.90
2018-01-26T11:18:49.184Z,97980.08
2018-01-26T11:21:16.829Z,97979.26
2018-01-26T11:23:44.444Z,97983.70
2018-01-26T11:26:12.043Z,97987.20
2018-01-26T11:28:39.672Z,97982.92
2018-01-26T11:31:07.273Z,97981.79
2018-01-26T11:33:35.092Z,97982.09
2018-01-26T11:36:02.682Z,97981.09
2018-01-26T11:38:30.279Z,97986.96
2018-01-26T11:40:57.893Z,97990.28
2018-01-26T11:43:25.490Z,97989.32
2018-01-26T11:45:53.303Z,97981.21
2018-01-26T11:48:20.906Z,97983.20
2018-01-26T11:50:48.512Z,97976.33
2018-01-26T11:53:16.133Z,97976.31
2018-01-26T11:55:43.728Z,97972.73
2018-01-26T11:58:11.707Z,97968.60
2018-01-26T12:00:39.320Z,97968.34
2018-01-26T12:03:06.945Z,97977.25
2018-01-26T12:05:34.847Z,97967.94
2018-01-26T12:08:02.597Z,97968.45
2018-01-26T12:10:30.560Z,97964.42
2018-01-26T12:12:58.172Z,97964.88
2018-01-26T12:15:26.180Z,97966.41
2018-01-26T12:17:53.805Z,97970.42
2018-01-26T12:20:21.492Z,97975.56
2018-01-26T12:22:49.152Z,97968.39
2018-01-26T12:25:16.787Z,97974.19
2018-01-26T12:27:44.434Z,97976.19
2018-01-26T12:30:12.039Z,97984.61
2018-01-26T12:32:39.740Z,97973.55
2018-01-26T12:35:07.349Z,97970.92
2018-01-26T12:37:34.968Z,97970.83
2018-01-26T12:40:02.593Z,97975.16
2018-01-26T12:42:30.228Z,97976.97
2018-01-26T12:44:58.212Z,97983.73
2018-01-26T12:47:25.843Z,97976.55
2018-01-26T12:49:53.438Z,97975.95
2018-01-26T12:52:21.059Z,97980.29
2018-01-26T12:54:48.649Z,97987.44
2018-01-26T12:57:16.298Z,97988.36
2018-01-26T12:59:43.887Z,97990.22
2018-01-26T13:02:11.848Z,97984.27
2018-01-26T13:04:39.459Z,97982.45
2018-01-26T13:07:07.047Z,97987.08
2018-01-26T13:09:34.674Z,97986.59
2018-01-26T13:12:02.296Z,97986.88
2018-01-26T13:14:29.913Z,97988.66
2018-01-26T13:16:57.516Z,97991.50
2018-01-26T13:19:25.276Z,97994.25
2018-01-26T13:21:52.873Z,98000.13
2018-01-26T13:24:20.467Z,98003.29
2018-01-26T13:26:48.093Z,98002.92
2018-01-26T13:29:15.692Z,98004.19
2018-01-26T13:31:43.332Z,98004.62
2018-01-26T13:34:10.946Z,98006.23
2018-01-26T13:36:38.611Z,98009.05
2018-01-26T13:39:06.209Z,98007.45
2018-01-26T13:41:33.803Z,98010.42
2018-01-26T13:44:01.430Z,98014.78
2018-01-26T13:46:29.023Z,98020.53
2018-01-26T13:48:56.645Z,98026.21
2018-01-26T13:51:24.246Z,98024.69
2018-01-26T13:53:51.863Z,98022.69
2018-01-26T13:56:19.462Z,98031.69
2018-01-26T13:58:47.055Z,98036.07
2018-01-26T14:01:14.691Z,98040.52
2018-01-26T14:03:42.279Z,98039.23
2018-01-26T14:06:09.896Z,98042.60
2018-01-26T14:08:37.496Z,98050.61
2018-01-26T14:11:05.132Z,98046.60
2018-01-26T14:13:32.720Z,98048.94
2018-01-26T14:16:00.349Z,98056.02
2018-01-26T14:18:27.996Z,98047.05
2018-01-26T14:20:55.611Z,98053.28
2018-01-26T14:23:23.240Z,98050.78
2018-01-26T14:25:50.840Z,98053.36
2018-01-26T14:28:18.505Z,98057.31
2018-01-26T14:30:46.101Z,98060.05
2018-01-26T14:33:13.707Z,98066.09
2018-01-26T14:35:41.479Z,98070.36
2018-01-26T14:38:09.201Z,98074.63
2018-01-26T14:40:36.814Z,98074.13
2018-01-26T14:43:04.412Z,98078.97
2018-01-26T14:47:59.145Z,98080.02
2018-01-26T14:50:26.754Z,98083.76
2018-01-26T14:52:54.392Z,98084.00
2018-01-26T14:55:21.996Z,98088.11
2018-01-26T14:57:49.606Z,98090.39
2018-01-26T15:00:17.198Z,98093.61
2018-01-26T15:02:45.040Z,98099.31
2018-01-26T15:05:12.645Z,98105.34
2018-01-26T15:07:40.251Z,98106.62
2018-01-26T15:10:07.873Z,98108.56
2018-01-26T15:12:35.507Z,98104.15
2018-01-26T15:15:03.133Z,98120.34
2018-01-26T15:17:30.737Z,98122.36
2018-01-26T15:19:58.562Z,98128.55
2018-01-26T15:22:26.184Z,98133.40
2018-01-26T15:24:53.837Z,98134.18
2018-01-26T15:27:21.457Z,98135.80
2018-01-26T15:29:49.063Z,98134.19
2018-01-26T15:32:16.682Z,98138.48
2018-01-26T15:34:44.267Z,98147.49
2018-01-26T15:37:11.907Z,98150.38
2018-01-26T15:39:39.522Z,98151.27
2018-01-26T15:42:07.110Z,98156.99
2018-01-26T15:44:34.732Z,98157.30
2018-01-26T15:47:02.344Z,98167.86
2018-01-26T15:49:29.962Z,98167.11
2018-01-26T15:51:57.587Z,98163.06
2018-01-26T15:54:25.227Z,98165.67
2018-01-26T15:56:52.808Z,98164.83
2018-01-26T15:59:20.440Z,98164.16
2018-01-26T16:01:48.112Z,98165.63
2018-01-26T16:04:15.747Z,98167.46
2018-01-26T16:06:43.334Z,98172.75
2018-01-26T16:09:11.077Z,98174.52
2018-01-26T16:11:38.663Z,98177.86
2018-01-26T16:14:06.268Z,98184.23
2018-01-26T16:16:33.894Z,98184.39
2018-01-26T16:19:01.527Z,98183.58
2018-01-26T16:21:29.163Z,98190.38
2018-01-26T16:23:56.756Z,98193.28
2018-01-26T16:26:24.634Z,98198.41
2018-01-26T16:28:52.239Z,98209.59
2018-01-26T16:31:19.870Z,98213.20
2018-01-26T16:33:47.488Z,98223.02
2018-01-26T16:36:15.077Z,98228.96
2018-01-26T16:38:42.741Z,98230.32
2018-01-26T16:41:10.349Z,98230.81
2018-01-26T16:43:38.259Z,98225.70
2018-01-26T16:46:05.873Z,98223.37
2018-01-26T16:48:33.470Z,98234.84
2018-01-26T16:51:01.094Z,98247.23
2018-01-26T16:53:28.730Z,98256.86
2018-01-26T16:55:56.349Z,98260.53
2018-01-26T16:58:23.958Z,98266.28
2018-01-26T17:00:51.903Z,98273.63
2018-01-26T17:03:19.500Z,98264.05
2018-01-26T17:05:47.095Z,98270.41
2018-01-26T17:08:14.723Z,98273.39
2018-01-26T17:10:42.312Z,98273.86
2018-01-26T17:13:09.924Z,98279.73
2018-01-26T17:15:37.520Z,98282.03
2018-01-26T17:18:05.423Z,98285.47
2018-01-26T17:20:33.022Z,98287.41
2018-01-26T17:23:00.627Z,98289.75
2018-01-26T17:25:28.259Z,98281.30
2018-01-26T17:27:55.877Z,98292.44
2018-01-26T17:30:23.497Z,98292.53
2018-01-26T17:32:51.111Z,98287.14
2018-01-26T17:35:18.959Z,98294.87
2018-01-26T17:37:46.554Z,98293.61
2018-01-26T17:40:14.192Z,98289.09
2018-01-26T17:42:41.803Z,98292.21
2018-01-26T17:45:09.407Z,98291.65
2018-01-26T17:47:37.024Z,98297.98
2018-01-26T17:50:04.624Z,98287.31
2018-01-26T17:52:32.503Z,98289.25
2018-01-26T17:55:00.708Z,98285.98
2018-01-26T17:57:28.312Z,98280.63
2018-01-26T17:59:55.959Z,98283.00
2018-01-26T18:02:23.572Z,98282.92
2018-01-26T18:04:51.206Z,98285.43
2018-01-26T18:07:18.795Z,98290.88
2018-01-26T18:09:46.755Z,98292.58
2018-01-26T18:12:14.354Z,98299.50
2018-01-26T18:14:41.947Z,98293.53
2018-01-26T18:17:09.575Z,98294.06
2018-01-26T18:19:37.205Z,98296.53
2018-01-26T18:22:04.838Z,98293.55
2018-01-26T18:24:32.427Z,98293.99
2018-01-26T18:27:00.105Z,98298.66
2018-01-26T18:29:27.725Z,98305.28
2018-01-26T18:31:55.322Z,98305.28
2018-01-26T18:34:22.956Z,98317.41
2018-01-26T18:36:50.573Z,98324.68
2018-01-26T18:39:18.204Z,98331.56
2018-01-26T18:41:45.811Z,98338.72
2018-01-26T18:44:13.438Z,98340.24
2018-01-26T18:46:41.055Z,98330.63
2018-01-26T18:49:08.832Z,98341.11
2018-01-26T18:51:36.446Z,98350.67
2018-01-26T18:54:04.058Z,98361.44
2018-01-26T18:56:31.704Z,98369.89
2018-01-26T18:58:59.315Z,98375.28
2018-01-26T19:01:26.944Z,98377.85
2018-01-26T19:03:54.534Z,98385.64
2018-01-26T19:06:22.129Z,98383.45
2018-01-26T19:08:49.758Z,98388.91
2018-01-26T19:11:17.378Z,98385.03
2018-01-26T19:13:45.000Z,98392.89
2018-01-26T19:16:12.602Z,98395.54
2018-01-26T19:18:40.235Z,98397.50
2018-01-26T19:21:07.861Z,98400.78
2018-01-26T19:23:35.451Z,98400.67
2018-01-26T19:26:03.072Z,98405.30
2018-01-26T19:28:30.661Z,98413.21
2018-01-26T19:30:58.280Z,98419.45
2018-01-26T19:33:25.871Z,98424.02
2018-01-26T19:35:53.599Z,98425.63
2018-01-26T19:38:21.196Z,98434.36
2018-01-26T19:40:48.799Z,98438.37
2018-01-26T19:43:16.414Z,98441.81
2018-01-26T19:45:44.017Z,98440.72
2018-01-26T19:48:11.639Z,98447.73
2018-01-26T19:50:39.235Z,98448.22
2018-01-26T19:53:07.120Z,98445.94
2018-01-26T19:55:34.725Z,98449.28
2018-01-26T19:58:03.099Z,98454.70
2018-01-26T20:00:30.726Z,98457.41
2018-01-26T20:03:09.958Z,98451.04
2018-01-26T20:09:09.493Z,98452.03
2018-01-26T20:11:37.079Z,98453.23
2018-01-26T20:14:05.116Z,98454.17
2018-01-26T20:16:32.707Z,98459.64
2018-01-26T20:19:00.301Z,98466.94
2018-01-26T20:21:27.932Z,98463.78
2018-01-26T20:23:55.534Z,98462.36
2018-01-26T20:26:23.156Z,98465.70
2018-01-26T20:28:50.755Z,98466.77
2018-01-26T20:31:18.387Z,98474.34
2018-01-26T20:33:46.043Z,98480.28
2018-01-26T20:36:13.650Z,98483.47
2018-01-26T20:38:41.271Z,98489.84
2018-01-26T20:41:08.884Z,98493.37
2018-01-26T20:43:36.501Z,98493.81
2018-01-26T20:46:04.095Z,98498.91
2018-01-26T20:48:31.735Z,98502.67
2018-01-26T20:50:59.324Z,98504.55
2018-01-26T20:53:27.093Z,98503.20
2018-01-26T20:55:54.695Z,98516.51
2018-01-26T20:58:22.304Z,98511.00
2018-01-26T21:00:50.256Z,98515.98
2018-01-26T21:03:17.856Z,98515.44
2018-01-26T21:05:45.439Z,98517.06
2018-01-26T21:08:13.059Z,98525.27
2018-01-26T21:10:40.658Z,98533.19
2018-01-26T21:13:08.264Z,98529.42
2018-01-26T21:15:35.871Z,98538.16
2018-01-26T21:18:03.501Z,98531.70
2018-01-26T21:20:31.092Z,98541.11
2018-01-26T21:22:58.724Z,98538.14
2018-01-26T21:25:26.307Z,98547.83
2018-01-26T21:27:54.254Z,98548.34
2018-01-26T21:30:21.850Z,98545.66
2018-01-26T21:32:49.440Z,98539.20
2018-01-26T21:35:17.081Z,98549.96
2018-01-26T21:37:44.666Z,98547.41
2018-01-26T21:40:12.284Z,98544.61
2018-01-26T21:42:39.879Z,98550.66
2018-01-26T21:45:07.680Z,98547.83
2018-01-26T21:47:35.267Z,98560.73
2018-01-26T21:50:02.860Z,98562.88
2018-01-26T21:52:30.466Z,98565.17
2018-01-26T21:54:58.069Z,98567.72
2018-01-26T21:57:25.692Z,98566.23
2018-01-26T21:59:53.289Z,98567.56
2018-01-26T22:02:21.231Z,98565.03
2018-01-26T22:04:54.400Z,98566.38
2018-01-26T22:07:27.612Z,98573.36
2018-01-26T22:09:55.215Z,98572.67
2018-01-26T22:12:22.812Z,98576.73
2018-01-26T22:14:50.432Z,98577.41
2018-01-26T22:17:18.090Z,98583.18
2018-01-26T22:19:45.708Z,98589.75
2018-01-26T22:22:13.306Z,98590.00
2018-01-26T22:24:41.337Z,98588.12
2018-01-26T22:27:08.930Z,98593.62
2018-01-26T22:29:36.532Z,98593.38
2018-01-26T22:32:04.188Z,98593.89
2018-01-26T22:34:31.827Z,98595.23
2018-01-26T22:36:59.482Z,98600.20
2018-01-26T22:39:27.117Z,98611.12
2018-01-26T22:41:54.731Z,98611.23
2018-01-26T22:44:22.364Z,98616.11
2018-01-26T22:46:50.383Z,98616.86
2018-01-26T22:49:17.989Z,98624.35
2018-01-26T22:51:45.583Z,98628.00
2018-01-26T22:54:13.224Z,98629.62
2018-01-26T22:56:40.815Z,98638.53
2018-01-26T22:59:08.435Z,98643.86
2018-01-26T23:01:36.024Z,98650.97
2018-01-26T23:04:03.748Z,98650.73
2018-01-26T23:06:31.343Z,98655.03
2018-01-26T23:08:58.936Z,98661.59
2018-01-26T23:11:26.559Z,98657.34
2018-01-26T23:13:54.152Z,98662.93
2018-01-26T23:16:21.767Z,98662.70
2018-01-26T23:18:49.376Z,98664.46
2018-01-26T23:21:17.330Z,98668.17
2018-01-26T23:23:44.945Z,98670.53
2018-01-26T23:26:12.577Z,98682.68
2018-01-26T23:28:40.201Z,98679.62
2018-01-26T23:31:07.849Z,98688.34
2018-01-26T23:33:35.462Z,98690.14
2018-01-26T23:36:03.067Z,98686.27
2018-01-26T23:38:30.894Z,98690.41
2018-01-26T23:40:58.490Z,98693.91
2018-01-26T23:43:26.087Z,98703.27
2018-01-26T23:45:53.741Z,98705.97
2018-01-26T23:48:21.335Z,98705.58
2018-01-26T23:50:48.967Z,98711.16
2018-01-26T23:53:16.557Z,98712.69
2018-01-26T23:55:44.584Z,98718.04
2018-01-26T23:58:12.325Z,98719.52
